Adams, Kentucky
Current Conditions -  °F | °C
As of 3:35 AM on Saturday 01 Nov 2014 (Local Time) from KSJS Reporting Station
Light Rain Light Rain  
Wind Chill: -1°   Ceiling: 400
Heat Index:   Visibility: 7mi
Dew Point:   Wind: 5mph
Humidity: 98%   Direction: 310°NW
Pressure: 29.9"   Gusts: NA
Location:  38.05°N, 82.71°W
Report Text: KSJS 010735Z AUTO 31004KT 7SM -RA OVC004 02/01 A2990 RMK AO2 T00160013
Loading
Personal Weather Stations






























Interactive Weather Map
Tropical Storm Tracking
New forecast layout! Learn more

10-Day Weather Forecast

Advertisements
Track Severe Weather on mobile